Weather observations for the past three days for
Stevens Point Municipal Airport
Metric (Imperial)
Date Time (cdt) Wind (kph) Vis. (km) Weather Sky Cond. Temperature (ºC) Relative Humidity Wind Chill (°C) Heat Index (°C) Pressure Precipitation (cm)
Air Dwpt 6 hour altimeter (cm) sea level (mb) 1 hr 3 hr 6 hr
Max. Min.
04 22:35 NW 31 G 44 16.09 Fair CLR 10.6 -3.2 38% 75.16 0.0
04 22:15 NW 17 G 33 16.09 Fair CLR 11.1 -3 37% 75.13 0.0
04 21:55 NW 19 G 39 16.09 Fair CLR 11.7 -2.2 38% 75.11 0.0
04 21:35 NW 24 G 39 16.09 Fair CLR 12.4 -1.4 39% 75.06 0.0
04 21:15 W 22 G 33 16.09 Fair CLR 13 -1.2 38% 75.03 0.0
04 20:55 NW 15 G 33 16.09 Fair CLR 13.5 -0.8 38% 75.01 0.0
04 20:35 NW 17 G 44 16.09 Fair CLR 14 -1.4 35% 74.98 0.0
04 20:15 NW 24 G 39 16.09 Fair CLR 14.5 -2 32% 74.93 0.0
04 19:55 NW 24 G 44 16.09 Fair CLR 15 -1.8 32% 74.93 0.0
04 19:35 NW 22 G 39 16.09 Fair CLR 15.5 -1.5 31% 74.88 0.0
04 19:15 NW 24 G 41 16.09 Fair CLR 16.5 -1.6 29% 74.85 0.0
04 18:55 W 19 G 37 16.09 Fair CLR 17.1 -0.5 23 17.1 30% 74.83 0.0
04 18:35 W 22 G 39 16.09 Fair CLR 17.8 -0.4 29% 74.8 0.0
04 18:10 W 19 G 39 16.09 Fair CLR 18 -1.2 27% 74.8 0.0
04 17:55 W 24 G 50 16.09 Fair CLR 18.3 -1.9 25% 74.8 0.0
04 17:35 W 31 G 44 16.09 Partly Cloudy SCT110 19 -1.4 25% 74.78 0.0
04 17:15 W 30 G 44 16.09 Partly Cloudy SCT080 SCT090 19.5 -1 25% 74.75 0.0
04 16:55 W 28 G 54 16.09 Mostly Cloudy BKN100 19.5 -0.9 25% 74.75 0.0
04 16:35 W 22 G 39 16.09 Partly Cloudy SCT100 19.7 -0.7 25% 74.73 0.0
04 16:15 W 24 G 43 16.09 Fair CLR 20.2 -1.4 23% 74.75 0.0
04 15:55 W 24 G 41 16.09 Fair CLR 20.5 -0.4 25% 74.73 0.0
04 15:35 W 28 G 48 16.09 Fair CLR 20.7 -1.3 23% 74.7 0.0
04 15:15 W 24 G 43 16.09 Fair CLR 21.9 0.6 24% 74.68 0.0
04 14:55 W 28 G 57 16.09 Fair CLR 21.5 0.8 25% 74.68 0.0
04 14:35 W 24 G 44 16.09 Fair CLR 21.3 1 26% 74.68 0.0
04 14:15 W 24 G 41 16.09 Fair CLR 21.3 0.6 25% 74.68 0.0
04 13:55 W 26 G 46 16.09 Fair CLR 21.7 2.6 29% 74.68 0.0
04 13:35 W 22 G 46 16.09 Partly Cloudy SCT110 22 4 31% 74.65 0.0
04 13:15 W 17 G 43 16.09 Partly Cloudy SCT075 SCT110 22.6 4.8 31% 74.65 0.0
04 12:55 W 31 G 54 16.09 Partly Cloudy SCT075 22.6 4.5 22.9 11.1 31% 74.65 0.0
04 12:35 W 31 G 52 16.09 Fair CLR 22.3 4.4 31% 74.63 0.0
04 12:15 W 37 G 57 16.09 Fair and Breezy CLR 22.7 4.6 31% 74.63 0.0
04 11:55 W 31 G 61 16.09 Fair CLR 21.5 3.9 32% 74.65 0.0
04 11:35 SW 26 G 50 16.09 Fair CLR 21.8 4 31% 74.65 0.0
04 11:15 SW 41 G 57 16.09 Fair and Breezy CLR 21.5 3.6 31% 74.65 0.0
04 10:55 W 26 G 48 16.09 Partly Cloudy SCT100 21.1 3.5 32% 74.68 0.0
04 10:35 W 37 G 59 16.09 Partly Cloudy and Breezy SCT100 20.6 2.8 31% 74.65 0.0
04 10:15 SW 43 G 57 16.09 Fair and Windy CLR 20.9 2.3 29% 74.65 0.0
04 09:55 SW 37 G 52 16.09 Fair and Breezy CLR 20.6 2 29% 74.65 0.0
04 09:35 SW 28 G 37 16.09 Fair CLR 20 2.3 31% 74.68 0.0
04 09:15 SW 28 G 39 16.09 Fair CLR 19 2 32% 74.7 0.0
04 08:55 SW 26 G 41 16.09 Fair CLR 18.1 1.8 34% 74.73 0.0
04 08:35 SW 26 G 43 16.09 Fair CLR 18.1 1.5 33% 74.73 0.0
04 08:15 SW 17 16.09 Fair CLR 16.4 2.1 38% 74.78 0.0
04 07:55 SW 17 16.09 Fair CLR 15 1.9 41% 74.8 0.0
04 07:35 SW 15 16.09 Fair CLR 14.2 2.2 45% 74.8 0.0
04 07:15 SW 17 16.09 Fair CLR 12.6 2.1 49% 74.83 0.0
04 06:55 SW 13 16.09 Fair CLR 10.9 2.3 10.9 5.5 56% 74.83 0.0
04 06:35 SW 13 16.09 Fair CLR 8.7 2.3 64% 7 74.83 0.0
04 06:15 S 9 16.09 Fair CLR 6.5 1 68% 5 74.85 0.0
04 05:55 SW 6 16.09 Fair CLR 7.3 1 65% 74.88 0.0
04 05:35 SW 6 16.09 Fair CLR 7.4 0.8 63% 74.9 0.0
04 05:15 S 6 16.09 Fair CLR 6.7 0.3 64% 74.93 0.0
04 04:55 SW 6 16.09 Fair CLR 7.6 0.6 62% 74.96 0.0
04 04:35 S 6 16.09 Fair CLR 7.2 0.5 63% 74.98 0.0
04 04:15 S 6 16.09 Fair CLR 6 0.1 66% 75.01 0.0
04 03:55 S 6 16.09 Fair CLR 6 0.2 67% 75.03 0.0
04 03:35 S 6 16.09 Fair CLR 6.3 0.2 65% 75.03 0.0
04 03:15 S 6 16.09 Fair CLR 5.6 0.9 72% 75.06 0.0
04 02:55 S 6 16.09 Fair CLR 5.7 0.9 72% 75.08 0.0
04 02:35 Calm 16.09 Fair CLR 5.8 0.6 70% 75.11 0.0
04 02:15 Calm 16.09 Fair CLR 6 0.1 66% 75.13 0.0
04 01:55 Calm 16.09 Fair CLR 6.1 -0.1 65% 75.16 0.0
04 01:35 Calm 16.09 Fair CLR 6.6 -0.3 62% 75.16 0.0
04 01:15 Calm 16.09 Fair CLR 7.5 0.1 60% 75.18 0.0
04 00:55 Calm 16.09 Fair CLR 7.2 0 21 7.2 61% 75.21 0.0
04 00:35 Calm 16.09 Fair CLR 8.6 0.1 55% 75.23 0.0
04 00:15 Calm 16.09 Fair CLR 9.2 -0.1 53% 75.26 0.0
03 23:55 Calm 16.09 Fair CLR 11.7 -0.4 44% 75.26 0.0
03 23:30 W 6 16.09 Fair CLR 14.6 -0.7 35% 75.26 0.0
03 23:15 W 7 16.09 Fair CLR 15 -0.3 35% 75.26 0.0
03 22:55 W 6 16.09 Fair CLR 15 0 36% 75.26 0.0
03 22:35 W 7 16.09 Fair CLR 15.3 0.3 36% 75.29 0.0
03 22:15 W 6 16.09 Fair CLR 16.2 0 33% 75.29 0.0
03 21:55 W 7 16.09 Fair CLR 16.4 0.5 34% 75.29 0.0
03 21:35 W 7 16.09 Fair CLR 16.5 0.4 34% 75.29 0.0
03 21:15 W 7 16.09 Fair CLR 17.4 0 31% 75.29 0.0
03 20:55 W 7 16.09 Fair CLR 17.9 0 30% 75.29 0.0
03 20:35 W 7 16.09 Fair CLR 18.5 0.1 29% 75.26 0.0
03 20:15 W 6 16.09 Fair CLR 19.1 0.4 29% 75.26 0.0
03 19:55 W 7 16.09 Fair CLR 19.7 0.7 28% 75.23 0.0
03 19:35 W 7 16.09 Fair CLR 20.3 0.7 27% 75.21 0.0
03 19:15 W 11 16.09 Fair CLR 20.7 0.3 26% 75.21 0.0
03 18:55 W 13 G 31 16.09 Fair CLR 21 1.5 22 19.5 28% 75.21 0.0
03 18:35 W 20 G 30 16.09 Fair CLR 21.1 1.3 27% 75.21 0.0
03 18:15 W 19 G 37 16.09 Fair CLR 21.2 1.3 27% 75.21 0.0
03 17:55 W 22 G 35 16.09 Fair CLR 21.2 1.4 27% 75.21 0.0
03 17:35 W 24 16.09 Fair CLR 21.5 1.5 27% 75.21 0.0
03 17:15 W 13 16.09 Fair CLR 21.7 1.3 26% 75.21 0.0
03 16:55 W 17 G 37 16.09 Partly Cloudy SCT075 21.6 2.4 28% 75.21 0.0
03 16:35 W 13 G 41 16.09 Partly Cloudy SCT075 21.6 2.4 28% 75.21 0.0
03 16:15 W 24 G 37 16.09 Partly Cloudy SCT080 SCT085 22 2.7 28% 75.21 0.0
03 15:55 W 22 G 35 16.09 Partly Cloudy SCT070 SCT085 21.6 2.8 29% 75.23 0.0
03 15:35 W 24 G 33 16.09 Partly Cloudy SCT070 21.5 2.5 29% 75.23 0.0
03 15:15 W 17 G 26 16.09 Partly Cloudy SCT070 21.3 2.9 30% 75.23 0.0
03 14:55 W 13 G 28 16.09 Fair CLR 21.7 3.2 30% 75.26 0.0
03 14:35 W 13 G 19 16.09 Fair CLR 20.7 2.6 30% 75.26 0.0
03 14:15 W 20 G 31 16.09 Fair CLR 20.8 2.8 31% 75.29 0.0
03 13:55 W 19 G 30 16.09 Partly Cloudy SCT095 20.2 2.8 32% 75.29 0.0
03 13:35 SW 20 G 30 16.09 Partly Cloudy SCT095 20.4 2.9 32% 75.31 0.0
03 13:15 SW 20 G 33 16.09 Partly Cloudy SCT095 19.6 2.9 33% 75.34 0.0
03 12:55 SW 19 G 37 16.09 Fair CLR 19.4 2.5 19.7 9.8 33% 75.34 0.0
03 12:35 W 17 G 35 16.09 Fair CLR 19 2.2 33% 75.36 0.0
03 12:15 W 17 G 33 16.09 Fair CLR 19 2.4 33% 75.39 0.0
03 11:55 SW 13 G 30 16.09 Fair CLR 19 2.5 33% 75.41 0.0
03 11:35 SW 20 G 35 16.09 Fair CLR 18.5 2.2 34% 75.41 0.0
03 11:15 SW 24 G 35 16.09 Fair CLR 18.4 2.3 34% 75.41 0.0
03 10:55 SW 20 G 35 16.09 Fair CLR 17.8 2.8 37% 75.44 0.0
03 10:35 SW 31 G 41 16.09 Fair CLR 17.1 3.2 40% 75.46 0.0
03 10:15 SW 20 G 35 16.09 Fair CLR 16.6 3.3 41% 75.49 0.0
03 09:55 SW 22 G 33 16.09 Partly Cloudy SCT120 16.3 3.5 43% 75.49 0.0
03 09:35 S 19 16.09 Mostly Cloudy SCT075 BKN120 15 3.2 45% 75.51 0.0
03 09:15 SW 11 16.09 Overcast SCT065 BKN080 OVC110 13.5 2.2 47% 75.54 0.0
03 08:55 SW 20 16.09 Overcast SCT090 OVC110 13.6 1.8 45% 75.57 0.0
03 08:35 SW 19 16.09 Mostly Cloudy BKN090 BKN120 13.6 1.6 44% 75.57 0.0
03 08:15 S 17 16.09 Partly Cloudy SCT110 12.5 1 46% 75.57 0.0
03 07:55 SW 15 16.09 Mostly Cloudy SCT075 BKN085 12 1 47% 75.59 0.0
03 07:35 W 7 16.09 Overcast OVC065 11 0.1 47% 75.59 0.0
03 07:15 SW 7 16.09 Mostly Cloudy BKN065 BKN080 BKN120 10.7 0.1 48% 75.59 0.0
03 06:55 S 9 16.09 Mostly Cloudy SCT080 BKN120 10 0.1 12 8.8 51% 9 75.59 0.0
03 06:35 SW 7 16.09 Mostly Cloudy SCT080 BKN110 9.3 0 53% 9 75.59 0.0
03 06:15 S 9 16.09 Mostly Cloudy BKN080 9.8 0 51% 9 75.59 0.0
03 05:55 S 11 16.09 Mostly Cloudy BKN090 9.8 0 51% 8 75.59 0.0
03 05:35 S 7 16.09 Overcast OVC090 10.1 0 50% 75.59 0.0
03 05:15 S 9 16.09 Overcast OVC100 10 0 50% 9 75.59 0.0
03 04:55 S 9 16.09 Overcast BKN085 OVC110 10.5 0 49% 75.62 0.0
03 04:35 S 9 16.09 Overcast OVC085 10.6 0.1 49% 75.64 0.0
03 04:15 S 7 16.09 Overcast OVC085 11 0.2 48% 75.64 0.0
03 03:55 SW 9 16.09 Overcast OVC085 11.3 0 46% 75.67 0.0
03 03:35 SW 11 16.09 Light Rain SCT050 SCT065 OVC085 11.6 0 45% 75.69 0.0
03 03:15 SW 13 16.09 Overcast OVC065 12 -0.6 42% 75.72 0.0
03 02:55 SW 9 16.09 Overcast OVC075 11.5 -0.2 45% 75.72 0.0
03 02:35 SW 11 16.09 Overcast BKN085 OVC100 10.6 0 48% 75.72 0.0
03 02:15 SW 11 16.09 Overcast OVC080 10.5 0 49% 75.72 0.0
03 01:55 SW 9 16.09 Overcast OVC090 9.9 0.2 51% 9 75.72 0.0
03 01:35 SW 9 16.09 Mostly Cloudy BKN100 9.3 0.5 54% 8 75.74 0.0
03 01:15 S 7 16.09 Partly Cloudy SCT100 SCT120 9.1 -0.1 53% 8 75.74 0.0
03 00:55 S 7 16.09 Mostly Cloudy BKN100 BKN120 9 0 15.1 8.5 54% 8 75.77 0.0
03 00:35 S 7 16.09 Overcast OVC090 9.6 0 52% 9 75.77 0.0
03 00:15 S 7 16.09 Overcast BKN090 OVC100 9.8 0.5 53% 9 75.79 0.0
02 23:55 S 9 16.09 Mostly Cloudy BKN090 BKN110 9.2 0.4 54% 8 75.79 0.0
02 23:35 S 7 16.09 Partly Cloudy SCT100 9.1 -0.4 52% 8 75.82 0.0
02 23:15 S 9 16.09 Mostly Cloudy SCT085 BKN110 10.5 -0.6 46% 75.82 0.0
02 22:55 S 6 16.09 Overcast BKN085 OVC110 10.7 -0.8 45% 75.84 0.0
02 22:35 S 7 16.09 Overcast OVC085 9.6 0.4 53% 9 75.87 0.0
02 22:15 Calm 16.09 Overcast OVC085 8.5 -0.1 55% 75.9 0.0
02 21:55 Calm 16.09 Overcast OVC095 8.5 -1.3 50% 75.92 0.0
02 21:35 Calm 16.09 Overcast OVC095 9.7 -1.5 46% 75.92 0.0
02 21:15 Calm 16.09 Mostly Cloudy BKN095 9.3 -1.7 46% 75.92 0.0
02 20:55 Calm 16.09 Partly Cloudy SCT095 10.1 -2 43% 75.92 0.0
02 20:35 Calm 16.09 Fair CLR 12 -3 35% 75.92 0.0
02 20:15 W 6 16.09 Fair CLR 13.5 -3.5 31% 75.92 0.0
02 19:55 W 7 16.09 Fair CLR 13.9 -3.6 30% 75.92 0.0
02 19:35 W 6 16.09 Fair CLR 14.5 -4 28% 75.92 0.0
02 19:15 W 13 16.09 Fair CLR 14.8 -4.6 26% 75.92 0.0
02 18:55 W 19 16.09 Fair CLR 15.1 -4.7 16.1 13.5 25% 75.95 0.0
02 18:35 W 11 16.09 Fair CLR 15.5 -4.5 25% 75.95 0.0
02 18:15 W 19 G 33 16.09 Fair CLR 15.6 -4.5 25% 75.95 0.0
02 17:55 W 17 G 31 16.09 Fair CLR 15.5 -4.7 25% 75.95 0.0
02 17:35 W 13 G 26 16.09 Fair CLR 15.2 -4 27% 75.97 0.0
02 17:15 W 17 G 30 16.09 Partly Cloudy SCT080 16 -4.4 24% 75.97 0.0
02 16:55 W 13 16.09 Partly Cloudy SCT080 15.9 -4 25% 75.97 0.0
02 16:35 W 17 G 28 16.09 Partly Cloudy SCT080 15.9 -4.3 25% 76 0.0
02 16:15 NW 13 G 19 16.09 Partly Cloudy SCT080 15.5 -4.6 25% 76.02 0.0
02 15:55 W 11 G 30 16.09 Fair CLR 15.5 -5.5 23% 76.05 0.0
02 15:35 W 15 16.09 Fair CLR 14.7 -5.7 24% 76.05 0.0
02 15:15 NW 13 16.09 Partly Cloudy SCT075 15 -5.4 24% 76.07 0.0
02 14:55 W 17 G 26 16.09 Partly Cloudy SCT075 14.7 -5.5 24% 76.1 0.0
02 14:35 NW 13 G 31 16.09 Partly Cloudy SCT075 15 -4.5 26% 76.12 0.0
02 14:15 W 19 G 30 16.09 Partly Cloudy SCT075 15 -5 25% 76.15 0.0
02 13:55 NW 17 G 28 16.09 Mostly Cloudy BKN075 15.1 -4.8 25% 76.17 0.0
02 13:35 W 22 G 28 16.09 Mostly Cloudy BKN075 13.6 -5.7 26% 76.17 0.0
02 13:15 W 20 G 26 16.09 Mostly Cloudy BKN075 14.5 -5 26% 76.2 0.0
02 12:55 W 20 G 26 16.09 Partly Cloudy SCT075 13.9 -5.5 14.2 -1.3 26% 76.2 0.0
02 12:35 W 20 G 39 16.09 Partly Cloudy SCT075 13 -6.8 25% 76.23 0.0
02 12:15 W 11 16.09 Partly Cloudy SCT075 13 -5.2 28% 76.25 0.0
02 11:55 SW 9 G 35 16.09 Fair CLR 12.6 -5.9 27% 76.28 0.0
02 11:35 W 13 16.09 Fair CLR 12.4 -5.4 29% 76.28 0.0
02 11:15 NW 7 16.09 Fair CLR 12 -5.5 29% 76.3 0.0
02 10:55 Calm 16.09 Fair CLR 11.6 -5.4 30% 76.33 0.0
02 10:35 W 6 16.09 Fair CLR 11 -6 30% 76.33 0.0
02 10:15 Calm 16.09 Fair CLR 10.8 -6 30% 76.35 0.0
02 09:55 S 9 16.09 Fair CLR 10.4 -4.8 34% 76.35 0.0
02 09:35 W 7 16.09 Fair CLR 9.6 -5.3 35% 9 76.38 0.0
02 09:15 SW 9 16.09 Fair CLR 8.9 -5.4 36% 8 76.38 0.0
02 08:55 SW 6 16.09 Fair CLR 7.6 -3.9 44% 76.4 0.0
02 08:35 Calm 16.09 Fair CLR 6 -1.5 59% 76.4 0.0
02 08:15 Calm 16.09 Mostly Cloudy BKN075 4.7 -0.4 70% 76.43 0.0
02 07:55 Calm 16.09 Mostly Cloudy BKN075 3.3 0 79% 76.43 0.0
02 07:35 Calm 16.09 Partly Cloudy SCT075 1.4 -0.6 87% 76.43 0.0
02 07:15 Calm 16.09 Fair CLR 0 -1.7 88% 76.43 0.0
02 06:55 Calm 16.09 Fair CLR -1.4 -3 -1.4 -3.5 89% 76.43 0.0
02 06:35 Calm 16.09 Fair CLR -2.8 -4.2 90% 76.4 0.0
02 06:15 Calm 16.09 Fair CLR -3.2 -4.6 90% 76.4 0.0
02 05:55 Calm 16.09 Fair CLR -3.1 -4.6 90% 76.4 0.0
02 05:35 Calm 16.09 Partly Cloudy SCT080 -3 -4.5 90% 76.43 0.0
02 05:15 Calm 16.09 Mostly Cloudy BKN080 -3 -4.7 88% 76.43 0.0
02 04:55 Calm 16.09 Mostly Cloudy BKN080 -2.7 -4.5 88% 76.43 0.0
02 04:35 Calm 16.09 Overcast OVC080 -2.6 -4.2 89% 76.43 0.0
02 04:15 Calm 16.09 Overcast OVC080 -2.3 -4 88% 76.4 0.0
02 03:55 Calm 16.09 Overcast OVC080 -2.6 -4.2 89% 76.4 0.0
02 03:35 Calm 16.09 Partly Cloudy SCT080 -2.6 -4.2 89% 76.43 0.0
02 03:15 Calm 16.09 Mostly Cloudy BKN080 -2.5 -4 90% 76.43 0.0
02 02:55 Calm 16.09 Mostly Cloudy BKN080 -2.6 -4.5 87% 76.43 0.0
02 02:35 Calm 16.09 Partly Cloudy SCT080 -2.2 -4.1 87% 76.43 0.0
02 02:15 Calm 16.09 Partly Cloudy SCT080 -2.2 -4.3 86% 76.43 0.0
02 01:55 Calm 16.09 Fair CLR -2.3 -4.4 86% 76.43 0.0
02 01:35 Calm 16.09 Fair CLR -2.5 -4.7 85% 76.43 0.0
02 01:15 Calm 16.09 Fair CLR -2 -4.5 83% 76.43 0.0
02 00:55 Calm 16.09 Fair CLR -1.5 -4.3 7.8 -1.8 81% 76.43 0.0
02 00:35 Calm 16.09 Fair CLR -1.2 -4 82% 76.43 0.0
02 00:15 Calm 16.09 Fair CLR -1.8 -4.2 84% 76.43 0.0
01 23:55 Calm 16.09 Fair CLR -1.4 -4.2 81% 76.43 0.0
01 23:35 Calm 16.09 Fair CLR -1.3 -4 82% 76.43 0.0
01 23:15 Calm 16.09 Fair CLR 0 -3 80% 76.4 0.0
01 22:55 Calm 16.09 Fair CLR -0.6 -4.2 77% 76.43 0.0
Date Time (cdt) Wind (kph) Vis. (km) Weather Sky Cond. Air Dwpt Max. Min. Relative Humidity Wind Chill (°C) Heat Index (°C) altimeter (cm) sea level (mb) 1 hr 3 hr 6 hr
6 hour
Temperature (ºC) Pressure Precipitation (cm)